Time;durP1;ratioP1;P1;durP2;ratioP2;P2;SDS_P1;SDS_P2;PMS_P1;PMS_P2;Temp;Humidity;BMP_temperature;BMP_pressure;BME280_temperature;BME280_humidity;BME280_pressure;Samples;Min_cycle;Max_cycle;Signal;HPM_P1;HPM_P2
2024/01/13 00:00:14;;;;;;;17.47;10.97;;;4.30;99.90;;;;;;5053658;28;20702;-69
2024/01/13 00:02:39;;;;;;;15.47;10.30;;;4.20;99.90;;;;;;5053622;28;20534;-69
2024/01/13 00:05:06;;;;;;;19.00;10.13;;;4.20;99.90;;;;;;5053597;28;20174;-70
2024/01/13 00:07:31;;;;;;;19.13;11.03;;;4.20;99.90;;;;;;5053500;28;20173;-68
2024/01/13 00:09:57;;;;;;;17.53;11.37;;;4.20;99.90;;;;;;5053598;28;20528;-69
2024/01/13 00:12:22;;;;;;;18.40;11.87;;;4.20;99.90;;;;;;5053610;28;20169;-69
2024/01/13 00:14:48;;;;;;;16.53;11.37;;;4.20;99.90;;;;;;5053506;28;20169;-71
2024/01/13 00:17:14;;;;;;;18.70;12.23;;;4.00;99.90;;;;;;5053370;28;20180;-69
2024/01/13 00:19:39;;;;;;;19.07;12.77;;;4.20;99.90;;;;;;5050567;28;20760;-69
2024/01/13 00:22:05;;;;;;;19.40;11.90;;;4.20;99.90;;;;;;5042095;28;20169;-69
2024/01/13 00:24:31;;;;;;;17.73;11.77;;;4.10;99.90;;;;;;5035374;28;20248;-69
2024/01/13 00:26:56;;;;;;;17.80;11.83;;;4.20;99.90;;;;;;5039648;28;20182;-69
2024/01/13 00:29:22;;;;;;;18.03;11.67;;;4.10;99.90;;;;;;5015402;28;20181;-69
2024/01/13 00:31:48;;;;;;;19.87;11.87;;;4.20;99.90;;;;;;5033171;28;20170;-69
2024/01/13 00:34:13;;;;;;;17.80;12.43;;;4.10;99.90;;;;;;5033065;28;20170;-69
2024/01/13 00:36:39;;;;;;;19.20;12.30;;;4.10;99.90;;;;;;5032821;28;20214;-69
2024/01/13 00:39:05;;;;;;;18.57;12.43;;;4.10;99.90;;;;;;5045689;28;20280;-69
2024/01/13 00:41:31;;;;;;;19.43;12.40;;;4.20;99.90;;;;;;5053036;28;20231;-71
2024/01/13 00:43:56;;;;;;;19.87;12.70;;;4.20;99.90;;;;;;5052130;28;20520;-70
2024/01/13 00:46:22;;;;;;;16.97;11.90;;;4.20;99.90;;;;;;5052882;28;20631;-70
2024/01/13 00:48:48;;;;;;;19.97;12.20;;;4.20;99.90;;;;;;5052645;28;20165;-71
2024/01/13 00:51:14;;;;;;;20.33;12.73;;;4.10;99.90;;;;;;5052514;28;20169;-72
2024/01/13 00:53:40;;;;;;;20.00;12.67;;;4.00;99.90;;;;;;5052582;28;20172;-71
2024/01/13 00:56:06;;;;;;;17.53;12.10;;;3.90;99.90;;;;;;5052707;28;20256;-69
2024/01/13 00:58:32;;;;;;;20.33;12.27;;;4.10;99.90;;;;;;5052628;28;20264;-69
2024/01/13 01:00:59;;;;;;;16.83;11.97;;;;;;;;;;5052179;28;20247;-70
2024/01/13 01:03:26;;;;;;;19.13;12.13;;;4.10;99.90;;;;;;5052503;28;20252;-69
2024/01/13 01:05:53;;;;;;;20.90;12.30;;;4.00;99.90;;;;;;5052229;28;20158;-69
2024/01/13 01:08:19;;;;;;;18.60;12.63;;;3.90;99.90;;;;;;5052538;28;20196;-70
2024/01/13 01:10:45;;;;;;;18.90;12.83;;;4.10;99.90;;;;;;5052492;28;20181;-69
2024/01/13 01:13:10;;;;;;;18.07;12.50;;;4.00;99.90;;;;;;5052411;28;20592;-69
2024/01/13 01:15:36;;;;;;;19.40;13.20;;;4.00;99.90;;;;;;5052399;28;20173;-69
2024/01/13 01:18:02;;;;;;;21.27;13.80;;;4.00;99.90;;;;;;5052218;28;20248;-70
2024/01/13 01:20:27;;;;;;;27.07;15.80;;;3.90;99.90;;;;;;5052015;28;20299;-69
2024/01/13 01:22:53;;;;;;;21.07;13.80;;;4.00;99.90;;;;;;5052140;28;20224;-68
2024/01/13 01:25:19;;;;;;;22.63;14.37;;;3.90;99.90;;;;;;5034266;28;20243;-69
2024/01/13 01:27:44;;;;;;;17.97;13.10;;;4.10;99.90;;;;;;5051996;28;20173;-69
2024/01/13 01:30:10;;;;;;;20.40;12.30;;;4.00;99.90;;;;;;5052014;28;20165;-69
2024/01/13 01:32:36;;;;;;;18.23;12.10;;;3.90;99.90;;;;;;5052062;28;20200;-69
2024/01/13 01:35:02;;;;;;;20.33;12.70;;;3.90;99.90;;;;;;5051932;28;20197;-68
2024/01/13 01:37:27;;;;;;;20.50;12.43;;;3.90;99.90;;;;;;5051789;28;20213;-68
2024/01/13 01:39:53;;;;;;;24.23;12.57;;;3.90;99.90;;;;;;5051774;28;20205;-69
2024/01/13 01:42:18;;;;;;;21.90;12.70;;;3.90;99.90;;;;;;5051779;28;20231;-69
2024/01/13 01:44:44;;;;;;;21.93;12.87;;;4.00;99.90;;;;;;5051735;28;20259;-68
2024/01/13 01:47:11;;;;;;;22.47;13.67;;;4.00;99.90;;;;;;5051645;28;20260;-69
2024/01/13 01:49:37;;;;;;;20.93;12.93;;;3.90;99.90;;;;;;5051675;28;20726;-68
2024/01/13 01:52:03;;;;;;;20.53;13.67;;;3.90;99.90;;;;;;5051621;28;20241;-69
2024/01/13 01:54:29;;;;;;;21.17;13.47;;;3.90;99.90;;;;;;5051685;28;20208;-70
2024/01/13 01:56:57;;;;;;;20.77;14.10;;;3.80;99.90;;;;;;5051532;28;20201;-71
2024/01/13 01:59:24;;;;;;;25.47;15.03;;;4.00;99.90;;;;;;5051436;28;20220;-68
2024/01/13 02:01:51;;;;;;;19.17;13.30;;;4.00;99.90;;;;;;5051375;28;20205;-70
2024/01/13 02:04:17;;;;;;;22.00;13.20;;;4.00;99.90;;;;;;5051317;28;20177;-70
2024/01/13 02:06:42;;;;;;;23.13;14.63;;;3.90;99.90;;;;;;5051337;28;20599;-70
2024/01/13 02:09:12;;;;;;;22.23;13.40;;;3.90;99.90;;;;;;5051388;28;20169;-70
2024/01/13 02:11:37;;;;;;;23.87;14.87;;;3.80;99.90;;;;;;5051349;28;20161;-68
2024/01/13 02:14:03;;;;;;;25.57;17.13;;;3.80;99.90;;;;;;5051345;28;20237;-68
2024/01/13 02:16:29;;;;;;;23.60;15.83;;;3.80;99.90;;;;;;5051227;28;20177;-71
2024/01/13 02:18:55;;;;;;;24.93;15.60;;;3.80;99.90;;;;;;5051006;28;20170;-71
2024/01/13 02:21:21;;;;;;;24.37;15.77;;;3.90;99.90;;;;;;5051258;28;20255;-68
2024/01/13 02:23:46;;;;;;;25.50;16.87;;;3.90;99.90;;;;;;5033223;28;20169;-68
2024/01/13 02:26:12;;;;;;;23.27;14.53;;;3.90;99.90;;;;;;5051218;28;20173;-71
2024/01/13 02:28:39;;;;;;;20.27;14.50;;;4.00;99.90;;;;;;5051226;28;20179;-71
2024/01/13 02:31:05;;;;;;;24.17;15.60;;;3.90;99.90;;;;;;5051013;28;20216;-68
2024/01/13 02:33:30;;;;;;;24.30;15.93;;;3.90;99.90;;;;;;5051075;28;20177;-68
2024/01/13 02:35:56;;;;;;;27.27;18.13;;;3.80;99.90;;;;;;5033024;28;20209;-68
2024/01/13 02:38:22;;;;;;;38.10;18.67;;;3.80;99.90;;;;;;5051178;28;20230;-69
2024/01/13 02:40:47;;;;;;;30.67;20.00;;;3.80;99.90;;;;;;5051030;28;20262;-71
2024/01/13 02:43:13;;;;;;;35.23;19.87;;;4.00;99.90;;;;;;5051023;28;20673;-71
2024/01/13 02:45:38;;;;;;;31.50;19.77;;;3.90;99.90;;;;;;5051033;28;20510;-71
2024/01/13 02:48:14;;;;;;;32.83;19.23;;;3.90;99.90;;;;;;5050905;28;20178;-68
2024/01/13 02:50:39;;;;;;;32.67;17.83;;;3.60;99.90;;;;;;5050994;28;20160;-68
2024/01/13 02:53:05;;;;;;;30.13;18.13;;;3.80;99.90;;;;;;5051084;28;20695;-67
2024/01/13 02:55:31;;;;;;;31.80;18.77;;;3.80;99.90;;;;;;5050935;28;20189;-68
2024/01/13 02:57:56;;;;;;;33.50;19.33;;;3.80;99.90;;;;;;5050913;28;20541;-68
2024/01/13 03:00:22;;;;;;;29.90;19.93;;;3.80;99.90;;;;;;5050761;28;20212;-68
2024/01/13 03:02:47;;;;;;;29.23;19.33;;;3.80;99.90;;;;;;5050914;28;20253;-68
2024/01/13 03:05:13;;;;;;;35.23;20.30;;;3.80;99.90;;;;;;5050856;28;20612;-68
2024/01/13 03:07:39;;;;;;;35.60;20.90;;;3.80;99.90;;;;;;5052073;28;20177;-69
2024/01/13 03:10:05;;;;;;;33.53;21.03;;;3.70;99.90;;;;;;5043053;28;20181;-69
2024/01/13 03:12:31;;;;;;;32.97;21.13;;;3.70;99.90;;;;;;5054592;28;20252;-69
2024/01/13 03:14:56;;;;;;;33.47;21.17;;;3.70;99.90;;;;;;5042643;28;20261;-68
2024/01/13 03:17:22;;;;;;;33.50;20.87;;;3.70;99.90;;;;;;5034579;28;20231;-68
2024/01/13 03:19:47;;;;;;;33.53;20.83;;;3.70;99.90;;;;;;5034333;28;20190;-69
2024/01/13 03:22:13;;;;;;;33.80;20.37;;;3.70;99.90;;;;;;5034463;28;20580;-68
2024/01/13 03:24:39;;;;;;;39.03;22.20;;;3.70;99.90;;;;;;5034466;28;20166;-69
2024/01/13 03:27:04;;;;;;;29.77;20.13;;;3.80;99.90;;;;;;5045591;28;20172;-68
2024/01/13 03:29:30;;;;;;;32.63;21.40;;;3.80;99.90;;;;;;5054183;28;20695;-68
2024/01/13 03:31:56;;;;;;;32.60;21.87;;;3.70;99.90;;;;;;5054136;28;20183;-68
2024/01/13 03:34:21;;;;;;;32.40;20.93;;;3.70;99.90;;;;;;5054122;28;20170;-69
2024/01/13 03:36:47;;;;;;;32.00;21.17;;;;;;;;;;5053952;28;20509;-68
2024/01/13 03:39:13;;;;;;;41.23;20.70;;;3.50;99.90;;;;;;5053918;28;20265;-69
2024/01/13 03:41:39;;;;;;;30.23;19.37;;;3.70;99.90;;;;;;5054180;28;20703;-69
2024/01/13 03:44:04;;;;;;;31.67;17.90;;;3.40;99.90;;;;;;5036032;28;20650;-68
2024/01/13 03:46:30;;;;;;;29.70;17.40;;;3.60;99.90;;;;;;5053801;28;20635;-69
2024/01/13 03:48:56;;;;;;;31.93;19.03;;;3.40;99.90;;;;;;5053735;28;20264;-69
2024/01/13 03:51:21;;;;;;;31.03;19.70;;;3.50;99.90;;;;;;5053884;28;20535;-69
2024/01/13 03:53:47;;;;;;;30.57;19.93;;;3.50;99.90;;;;;;5036070;28;20169;-69
2024/01/13 03:56:13;;;;;;;33.27;21.63;;;;;;;;;;5053877;28;20641;-68
2024/01/13 03:58:38;;;;;;;34.10;19.83;;;3.50;99.90;;;;;;5053774;28;20165;-70
2024/01/13 04:01:05;;;;;;;39.17;21.97;;;3.60;99.90;;;;;;5053720;28;20564;-69
2024/01/13 04:03:31;;;;;;;30.63;19.83;;;3.60;99.90;;;;;;5035802;28;20174;-69
2024/01/13 04:05:58;;;;;;;35.60;20.63;;;3.60;99.90;;;;;;5053698;28;20658;-69
2024/01/13 04:08:24;;;;;;;30.57;19.83;;;3.60;99.90;;;;;;5053671;28;20173;-68
2024/01/13 04:10:50;;;;;;;32.40;19.23;;;3.50;99.90;;;;;;5053596;28;20620;-68
2024/01/13 04:13:15;;;;;;;30.83;20.03;;;3.50;99.90;;;;;;5053323;28;20180;-68
2024/01/13 04:15:41;;;;;;;32.67;20.23;;;3.50;99.90;;;;;;5053457;28;20201;-69
2024/01/13 04:18:07;;;;;;;29.83;20.00;;;3.50;99.90;;;;;;5052208;28;20260;-69
2024/01/13 04:20:32;;;;;;;32.07;19.70;;;3.50;99.90;;;;;;5053340;28;20248;-69
2024/01/13 04:22:58;;;;;;;33.50;20.80;;;3.50;99.90;;;;;;5053398;28;20184;-69
2024/01/13 04:25:24;;;;;;;33.37;21.17;;;3.40;99.90;;;;;;5053366;28;20173;-69
2024/01/13 04:27:52;;;;;;;34.77;20.83;;;3.50;99.90;;;;;;5053140;28;20219;-69
2024/01/13 04:30:18;;;;;;;34.67;21.13;;;3.40;99.90;;;;;;5036014;28;20177;-69
2024/01/13 04:32:44;;;;;;;33.87;22.07;;;3.40;99.90;;;;;;5035247;28;20576;-69
2024/01/13 04:35:11;;;;;;;34.87;22.40;;;3.50;99.90;;;;;;5053095;28;20177;-69
2024/01/13 04:37:36;;;;;;;39.17;23.10;;;3.40;99.90;;;;;;5052986;28;20219;-69
2024/01/13 04:40:03;;;;;;;37.93;23.30;;;3.40;99.90;;;;;;5052866;28;20205;-68
2024/01/13 04:42:31;;;;;;;35.23;22.27;;;3.40;99.90;;;;;;5052986;28;20227;-70
2024/01/13 04:44:57;;;;;;;36.63;22.27;;;3.00;99.90;;;;;;5052974;28;20204;-69
2024/01/13 04:47:23;;;;;;;36.00;22.20;;;3.40;99.90;;;;;;5053081;28;20196;-70
2024/01/13 04:49:49;;;;;;;33.80;20.97;;;3.40;99.90;;;;;;5052907;28;20204;-69
2024/01/13 04:52:14;;;;;;;33.23;19.63;;;3.40;99.90;;;;;;5052754;28;20161;-69
2024/01/13 04:54:40;;;;;;;36.97;21.70;;;3.30;99.90;;;;;;5052789;28;20176;-69
2024/01/13 04:57:06;;;;;;;36.60;21.77;;;3.20;99.90;;;;;;5052553;28;20170;-69
2024/01/13 04:59:31;;;;;;;38.53;22.30;;;3.30;99.90;;;;;;5052581;28;20201;-69
2024/01/13 05:01:57;;;;;;;31.37;19.67;;;3.20;99.90;;;;;;5052735;28;20201;-69
2024/01/13 05:04:22;;;;;;;31.63;19.67;;;3.40;99.90;;;;;;5052804;28;20536;-69
2024/01/13 05:06:48;;;;;;;30.03;19.93;;;3.40;99.90;;;;;;5052579;28;20166;-70
2024/01/13 05:09:14;;;;;;;33.17;20.70;;;;;;;;;;5052446;28;20177;-70
2024/01/13 05:11:40;;;;;;;32.60;20.47;;;3.40;99.90;;;;;;5034724;28;20177;-70
2024/01/13 05:14:06;;;;;;;35.70;21.20;;;3.40;99.90;;;;;;5052443;28;20169;-70
2024/01/13 05:16:31;;;;;;;35.23;20.77;;;3.50;99.90;;;;;;5052262;28;20170;-70
2024/01/13 05:18:57;;;;;;;34.43;20.60;;;3.40;99.90;;;;;;5052188;28;20180;-70
2024/01/13 05:21:23;;;;;;;39.93;22.03;;;3.40;99.90;;;;;;5052299;28;20280;-70
2024/01/13 05:23:49;;;;;;;37.93;22.37;;;3.40;99.90;;;;;;5052167;28;20616;-70
2024/01/13 05:26:14;;;;;;;37.40;22.70;;;3.50;99.90;;;;;;5052118;28;20206;-70
2024/01/13 05:28:40;;;;;;;33.03;21.53;;;3.30;99.90;;;;;;5051766;28;20201;-70
2024/01/13 05:31:06;;;;;;;36.73;22.77;;;3.40;99.90;;;;;;5052267;28;20755;-71
2024/01/13 05:33:31;;;;;;;39.47;23.63;;;3.40;99.90;;;;;;5052065;28;20675;-70
2024/01/13 05:35:57;;;;;;;39.43;22.27;;;3.40;99.90;;;;;;5051749;28;20620;-70
2024/01/13 05:38:23;;;;;;;36.80;22.10;;;3.30;99.90;;;;;;5034043;28;20180;-70
2024/01/13 05:40:48;;;;;;;44.07;24.57;;;3.40;99.90;;;;;;5051812;28;20264;-70
2024/01/13 05:43:14;;;;;;;39.93;24.10;;;3.30;99.90;;;;;;5051980;28;20173;-70
2024/01/13 05:45:40;;;;;;;39.17;24.23;;;3.30;99.90;;;;;;5051817;28;20662;-70
2024/01/13 05:48:06;;;;;;;36.83;22.17;;;3.40;99.90;;;;;;5051752;28;20167;-70
2024/01/13 05:50:32;;;;;;;41.73;23.43;;;3.30;99.90;;;;;;5051882;28;20182;-70
2024/01/13 05:52:57;;;;;;;44.60;23.00;;;3.50;99.90;;;;;;5051747;28;20688;-69
2024/01/13 05:55:23;;;;;;;36.63;21.23;;;3.20;99.90;;;;;;5044463;28;20636;-69
2024/01/13 05:57:49;;;;;;;36.00;21.47;;;3.30;99.90;;;;;;5045056;28;20174;-70
2024/01/13 06:00:15;;;;;;;37.33;22.17;;;3.20;99.90;;;;;;5051111;28;20209;-70
2024/01/13 06:02:40;;;;;;;35.50;21.33;;;3.20;99.90;;;;;;5031514;28;20170;-69
2024/01/13 06:05:06;;;;;;;40.47;21.20;;;3.20;99.90;;;;;;5031565;28;20584;-69
2024/01/13 06:07:32;;;;;;;33.00;20.33;;;3.00;99.90;;;;;;5031429;28;20166;-70
2024/01/13 06:09:58;;;;;;;31.77;18.80;;;2.90;99.90;;;;;;5031365;28;20174;-70
2024/01/13 06:12:24;;;;;;;34.13;19.10;;;3.10;99.90;;;;;;5031215;28;20166;-70
2024/01/13 06:14:49;;;;;;;33.47;19.83;;;2.90;99.90;;;;;;5013672;28;20177;-70
2024/01/13 06:17:15;;;;;;;30.03;18.67;;;;;;;;;;5031322;28;20178;-70
2024/01/13 06:19:41;;;;;;;28.70;18.33;;;2.90;99.90;;;;;;5031064;28;20204;-70
2024/01/13 06:22:07;;;;;;;32.67;18.73;;;2.90;99.90;;;;;;5031149;28;20170;-70
2024/01/13 06:24:33;;;;;;;34.93;19.03;;;2.80;99.90;;;;;;5031009;28;20272;-70
2024/01/13 06:26:59;;;;;;;31.97;17.30;;;2.90;99.90;;;;;;5031372;28;20176;-70
2024/01/13 06:29:25;;;;;;;35.57;19.40;;;2.80;99.90;;;;;;5031213;28;20655;-70
2024/01/13 06:31:51;;;;;;;29.07;18.33;;;3.00;99.90;;;;;;5031134;28;20170;-69
2024/01/13 06:34:16;;;;;;;30.40;18.50;;;2.80;99.90;;;;;;5031142;28;20591;-70
2024/01/13 06:36:42;;;;;;;29.77;18.30;;;2.80;99.90;;;;;;5030862;28;20222;-69
2024/01/13 06:39:08;;;;;;;31.37;17.30;;;2.80;99.90;;;;;;5030877;28;20190;-70
2024/01/13 06:41:34;;;;;;;26.70;16.63;;;2.70;99.90;;;;;;5032822;28;20632;-69
2024/01/13 06:43:59;;;;;;;30.37;17.00;;;2.40;99.90;;;;;;5017309;28;20197;-69
2024/01/13 06:46:25;;;;;;;25.77;16.07;;;2.30;99.90;;;;;;5035182;28;20174;-70
2024/01/13 06:48:50;;;;;;;30.90;16.93;;;2.20;99.90;;;;;;5035069;28;20185;-69
2024/01/13 06:51:16;;;;;;;30.67;16.50;;;2.20;99.90;;;;;;5054238;28;20639;-69
2024/01/13 06:53:42;;;;;;;28.33;16.37;;;;;;;;;;5054906;28;20531;-69
2024/01/13 06:56:11;;;;;;;28.77;16.03;;;2.60;99.90;;;;;;5054955;28;20274;-70
2024/01/13 06:58:36;;;;;;;26.77;16.37;;;2.60;99.90;;;;;;5055165;28;20177;-70
2024/01/13 07:01:02;;;;;;;28.93;15.97;;;2.60;99.90;;;;;;5055119;28;20684;-70
2024/01/13 07:03:28;;;;;;;32.13;17.23;;;2.60;99.90;;;;;;5054853;28;20169;-70
2024/01/13 07:05:53;;;;;;;29.83;17.17;;;2.60;99.90;;;;;;5054843;28;20180;-70
2024/01/13 07:08:19;;;;;;;29.77;16.00;;;2.70;99.90;;;;;;5054649;28;20180;-70
2024/01/13 07:10:48;;;;;;;26.63;15.37;;;2.60;99.90;;;;;;5054758;28;20180;-70
2024/01/13 07:13:13;;;;;;;26.43;15.17;;;2.60;99.90;;;;;;5054877;28;20188;-70
2024/01/13 07:15:39;;;;;;;27.33;14.40;;;2.50;99.90;;;;;;5054642;28;20219;-70
2024/01/13 07:18:05;;;;;;;28.47;13.77;;;2.50;99.90;;;;;;5054617;28;20533;-70
2024/01/13 07:20:30;;;;;;;25.43;13.40;;;2.50;99.90;;;;;;5054386;28;20209;-70
2024/01/13 07:22:56;;;;;;;29.83;13.83;;;2.50;99.90;;;;;;5054482;28;20189;-70
2024/01/13 07:25:22;;;;;;;21.77;13.10;;;2.50;99.90;;;;;;5054509;28;20526;-70
2024/01/13 07:27:47;;;;;;;22.93;12.80;;;2.40;99.90;;;;;;5054292;28;20651;-70
2024/01/13 07:30:13;;;;;;;26.03;13.23;;;2.20;99.90;;;;;;5054496;28;20592;-70
2024/01/13 07:32:39;;;;;;;26.03;13.07;;;2.30;99.90;;;;;;5054214;28;20659;-70
2024/01/13 07:35:05;;;;;;;23.47;12.77;;;2.30;99.90;;;;;;5054311;28;20335;-70
2024/01/13 07:37:31;;;;;;;23.13;11.27;;;2.20;99.90;;;;;;5054017;28;20228;-69
2024/01/13 07:39:56;;;;;;;20.60;11.67;;;2.30;99.90;;;;;;5054213;28;20663;-69
2024/01/13 07:42:22;;;;;;;20.23;11.23;;;2.20;99.90;;;;;;5054170;28;20681;-70
2024/01/13 07:44:48;;;;;;;22.07;12.43;;;2.10;99.90;;;;;;5036200;28;20287;-70
2024/01/13 07:47:13;;;;;;;22.10;12.17;;;2.10;99.90;;;;;;5053845;28;20631;-70
2024/01/13 07:49:39;;;;;;;20.60;11.03;;;2.10;99.90;;;;;;5053886;28;20535;-69
2024/01/13 07:52:06;;;;;;;22.07;11.47;;;2.10;99.90;;;;;;5053547;28;20177;-69
2024/01/13 07:54:33;;;;;;;20.20;11.97;;;2.10;99.90;;;;;;5053864;28;20254;-70
2024/01/13 07:56:59;;;;;;;21.73;11.47;;;2.10;99.90;;;;;;5053832;28;20173;-70
2024/01/13 07:59:24;;;;;;;21.23;11.83;;;2.10;99.90;;;;;;5053682;28;20201;-70
2024/01/13 08:01:50;;;;;;;21.63;12.00;;;2.00;99.90;;;;;;5053848;28;20533;-70
2024/01/13 08:04:16;;;;;;;19.00;11.63;;;2.10;99.90;;;;;;5053566;28;20647;-71
2024/01/13 08:06:42;;;;;;;22.63;11.70;;;2.00;99.90;;;;;;5053618;28;20603;-71
2024/01/13 08:09:07;;;;;;;21.70;12.77;;;2.00;99.90;;;;;;5053621;28;20699;-71
2024/01/13 08:11:33;;;;;;;20.87;12.30;;;2.10;99.90;;;;;;5053520;28;20184;-71
2024/01/13 08:14:00;;;;;;;20.47;11.63;;;2.10;99.90;;;;;;5052118;28;20185;-71
2024/01/13 08:16:26;;;;;;;19.90;12.17;;;2.20;99.90;;;;;;5044485;28;20524;-72
2024/01/13 08:18:52;;;;;;;19.33;11.80;;;2.10;99.90;;;;;;5052940;28;20288;-72
2024/01/13 08:21:18;;;;;;;20.60;12.60;;;2.10;99.90;;;;;;5053247;28;20209;-71
2024/01/13 08:23:44;;;;;;;24.23;12.50;;;2.20;99.90;;;;;;5053190;28;20177;-71
2024/01/13 08:26:10;;;;;;;20.00;12.17;;;2.10;99.90;;;;;;5053341;28;20239;-72
2024/01/13 08:28:35;;;;;;;23.40;12.17;;;2.20;99.90;;;;;;5053140;28;20173;-71
2024/01/13 08:31:01;;;;;;;22.07;12.13;;;2.10;99.90;;;;;;5053212;28;20515;-71
2024/01/13 08:33:27;;;;;;;25.53;11.67;;;2.10;99.90;;;;;;5053210;28;20334;-72
2024/01/13 08:35:52;;;;;;;27.23;12.70;;;2.20;99.90;;;;;;5052882;28;20765;-72
2024/01/13 08:38:18;;;;;;;23.43;11.27;;;2.10;99.90;;;;;;5051747;28;20168;-71
2024/01/13 08:40:45;;;;;;;23.83;12.30;;;2.10;99.90;;;;;;5035301;28;20287;-72
2024/01/13 08:43:11;;;;;;;23.10;12.03;;;2.20;99.90;;;;;;5052904;28;20173;-72
2024/01/13 08:45:37;;;;;;;21.57;12.20;;;2.20;99.90;;;;;;5052501;28;20191;-72
2024/01/13 08:48:03;;;;;;;22.90;12.33;;;2.20;99.90;;;;;;5052803;28;20632;-71
2024/01/13 08:50:31;;;;;;;23.53;12.17;;;2.10;99.90;;;;;;5052784;28;20177;-73
2024/01/13 08:52:57;;;;;;;21.27;11.77;;;1.90;99.90;;;;;;5044773;28;20540;-71
2024/01/13 08:55:26;;;;;;;23.70;12.67;;;2.20;99.90;;;;;;5046454;28;20173;-72
2024/01/13 08:57:52;;;;;;;21.77;12.10;;;2.20;99.90;;;;;;5051054;28;20177;-72
2024/01/13 09:00:18;;;;;;;22.50;11.50;;;2.10;99.90;;;;;;5052217;28;20698;-72
2024/01/13 09:02:44;;;;;;;26.93;12.07;;;2.80;99.90;;;;;;5042727;28;20640;-71
2024/01/13 09:05:10;;;;;;;25.67;12.23;;;2.40;99.90;;;;;;5031733;28;20239;-70
2024/01/13 09:07:37;;;;;;;26.43;12.90;;;2.30;99.90;;;;;;5047223;28;20215;-71
2024/01/13 09:10:04;;;;;;;24.60;12.43;;;2.50;99.90;;;;;;5052170;28;20721;-71
2024/01/13 09:12:30;;;;;;;24.00;12.40;;;2.30;99.90;;;;;;5051640;28;20181;-71
2024/01/13 09:14:56;;;;;;;21.97;11.67;;;;;;;;;;5052204;28;20530;-70
2024/01/13 09:17:22;;;;;;;26.13;12.00;;;2.30;99.90;;;;;;5051748;28;20181;-71
2024/01/13 09:19:48;;;;;;;25.30;12.70;;;2.20;99.90;;;;;;5052033;28;20288;-70
2024/01/13 09:22:14;;;;;;;27.47;12.50;;;2.40;99.90;;;;;;5033332;28;20189;-71
2024/01/13 09:24:42;;;;;;;21.60;12.57;;;2.40;99.90;;;;;;5051901;28;20177;-71
2024/01/13 09:27:07;;;;;;;22.67;12.40;;;2.40;99.90;;;;;;5051883;28;20648;-70
2024/01/13 09:29:33;;;;;;;26.93;12.87;;;2.30;99.90;;;;;;5051995;28;20227;-71
2024/01/13 09:31:59;;;;;;;25.80;13.37;;;2.40;99.90;;;;;;5051861;28;20232;-70
2024/01/13 09:34:25;;;;;;;25.67;13.23;;;2.50;99.90;;;;;;5052020;28;20235;-71
2024/01/13 09:36:51;;;;;;;19.77;11.77;;;;;;;;;;5051250;28;20220;-71
2024/01/13 09:39:17;;;;;;;23.00;12.30;;;2.40;99.90;;;;;;5051521;28;20184;-71
2024/01/13 09:41:47;;;;;;;26.63;12.63;;;2.50;99.90;;;;;;5033395;28;20559;-72
2024/01/13 09:44:23;;;;;;;28.37;12.93;;;2.70;99.90;;;;;;5051251;28;20177;-71
2024/01/13 09:46:53;;;;;;;24.10;12.90;;;2.90;99.90;;;;;;5051387;28;20215;-71
2024/01/13 09:49:21;;;;;;;24.40;12.50;;;2.50;99.90;;;;;;5051775;28;20177;-71
2024/01/13 09:51:48;;;;;;;29.73;13.57;;;2.70;99.90;;;;;;5051615;28;20184;-70
2024/01/13 09:54:29;;;;;;;26.37;14.00;;;2.80;99.90;;;;;;5051463;28;20176;-70
2024/01/13 09:56:56;;;;;;;25.80;14.03;;;2.90;99.90;;;;;;5051492;28;20200;-70
2024/01/13 09:59:25;;;;;;;26.43;13.77;;;2.80;99.90;;;;;;5051419;28;20293;-74
2024/01/13 10:01:52;;;;;;;23.10;13.13;;;2.90;99.90;;;;;;5051656;28;20180;-72
2024/01/13 10:04:18;;;;;;;27.53;13.03;;;2.90;99.90;;;;;;5051356;28;20169;-71
2024/01/13 10:06:45;;;;;;;23.40;13.37;;;2.80;99.90;;;;;;5051326;28;20196;-72
2024/01/13 10:09:11;;;;;;;24.37;13.27;;;2.90;99.90;;;;;;5051337;28;20170;-72
2024/01/13 10:11:37;;;;;;;23.93;13.83;;;2.90;99.90;;;;;;5033275;28;20184;-71
2024/01/13 10:14:03;;;;;;;25.03;13.67;;;2.90;99.90;;;;;;5033492;28;20555;-72
2024/01/13 10:16:30;;;;;;;24.53;13.27;;;3.00;99.90;;;;;;5051352;28;20541;-72
2024/01/13 10:19:02;;;;;;;30.57;13.83;;;3.00;99.90;;;;;;5051355;28;20178;-72
2024/01/13 10:21:29;;;;;;;30.17;13.10;;;3.20;99.90;;;;;;5051027;28;20189;-72
2024/01/13 10:24:00;;;;;;;23.53;13.10;;;3.10;99.90;;;;;;5051267;28;20197;-71
2024/01/13 10:26:27;;;;;;;25.23;12.83;;;3.10;99.90;;;;;;5050996;28;20260;-72
2024/01/13 10:28:54;;;;;;;19.77;11.80;;;3.10;99.90;;;;;;5050992;28;20172;-72
2024/01/13 10:31:21;;;;;;;29.30;13.97;;;3.10;99.90;;;;;;5051060;28;20168;-72
2024/01/13 10:33:48;;;;;;;26.63;13.20;;;3.10;99.90;;;;;;5050941;28;20195;-72
2024/01/13 10:36:20;;;;;;;27.87;13.60;;;3.20;99.90;;;;;;5050832;28;20289;-72
2024/01/13 10:38:46;;;;;;;25.03;12.63;;;3.30;99.90;;;;;;5050712;28;20173;-70
2024/01/13 10:41:12;;;;;;;28.07;13.93;;;3.40;99.90;;;;;;5051013;28;20212;-72
2024/01/13 10:43:42;;;;;;;24.60;13.17;;;3.40;99.90;;;;;;5050903;28;20644;-71
2024/01/13 10:46:12;;;;;;;23.70;13.03;;;3.60;99.90;;;;;;5050874;28;20268;-72
2024/01/13 10:48:47;;;;;;;23.77;12.50;;;3.30;99.90;;;;;;5033016;28;20216;-72
2024/01/13 10:51:24;;;;;;;21.93;12.47;;;3.40;99.90;;;;;;5050680;28;20202;-71
2024/01/13 10:53:52;;;;;;;27.13;12.87;;;3.50;99.90;;;;;;5050732;28;20165;-71
2024/01/13 10:56:19;;;;;;;23.50;12.90;;;3.60;99.90;;;;;;5050795;28;20193;-71
2024/01/13 10:58:46;;;;;;;25.83;13.73;;;3.70;99.90;;;;;;5050635;28;20189;-71
2024/01/13 11:01:12;;;;;;;23.10;12.73;;;3.60;99.90;;;;;;5050504;28;20201;-71
2024/01/13 11:03:40;;;;;;;20.83;12.07;;;3.70;99.90;;;;;;5050529;28;20177;-71
2024/01/13 11:06:06;;;;;;;25.10;12.90;;;3.60;99.90;;;;;;5050713;28;20259;-71
2024/01/13 11:08:32;;;;;;;23.13;13.03;;;3.50;99.90;;;;;;5050726;28;20182;-71
2024/01/13 11:11:00;;;;;;;24.33;12.40;;;3.50;99.90;;;;;;5050585;28;20235;-71
2024/01/13 11:13:30;;;;;;;25.53;12.37;;;3.50;99.90;;;;;;5050579;28;20201;-71
2024/01/13 11:16:08;;;;;;;22.30;12.70;;;3.50;99.90;;;;;;5050591;28;20173;-71
2024/01/13 11:18:40;;;;;;;24.13;12.43;;;3.60;99.90;;;;;;5032579;28;20172;-72
2024/01/13 11:21:08;;;;;;;23.27;13.03;;;3.70;99.90;;;;;;5050484;28;20678;-71
2024/01/13 11:23:37;;;;;;;25.33;12.60;;;3.80;99.90;;;;;;5025440;28;20282;-71
2024/01/13 11:26:03;;;;;;;21.90;12.03;;;3.90;99.90;;;;;;5045582;28;20280;-71
2024/01/13 11:28:47;;;;;;;25.27;13.43;;;3.90;99.90;;;;;;5051095;28;20197;-71
2024/01/13 11:31:40;;;;;;;26.53;12.43;;;3.90;99.90;;;;;;5016401;28;20174;-71
2024/01/13 11:34:10;;;;;;;24.07;12.20;;;3.80;99.90;;;;;;5034160;28;20710;-71
2024/01/13 11:36:40;;;;;;;24.83;11.77;;;4.10;99.90;;;;;;5033898;28;20221;-73
2024/01/13 11:39:07;;;;;;;21.10;11.83;;;4.00;99.90;;;;;;5033972;28;20170;-73
2024/01/13 11:42:03;;;;;;;22.83;11.97;;;4.00;99.90;;;;;;5043129;28;20177;-73
2024/01/13 11:44:34;;;;;;;23.23;12.37;;;4.00;99.90;;;;;;5051284;28;20273;-72
2024/01/13 11:47:01;;;;;;;22.87;12.07;;;4.00;99.90;;;;;;5052727;28;20173;-72
2024/01/13 11:49:37;;;;;;;23.00;12.77;;;4.00;99.90;;;;;;5053855;28;20256;-71
2024/01/13 11:52:16;;;;;;;24.40;12.57;;;4.00;99.90;;;;;;5053799;28;20173;-72
2024/01/13 11:54:46;;;;;;;19.23;11.27;;;4.20;99.90;;;;;;5053368;28;20175;-73
2024/01/13 11:57:15;;;;;;;23.50;12.33;;;4.20;99.90;;;;;;5053276;28;20189;-72
2024/01/13 11:59:41;;;;;;;21.87;12.73;;;4.70;99.90;;;;;;5053537;28;20218;-73
2024/01/13 12:02:08;;;;;;;21.07;12.00;;;4.30;99.90;;;;;;5053460;28;20177;-70
2024/01/13 12:04:39;;;;;;;24.23;12.43;;;4.40;99.90;;;;;;5053679;28;20177;-71
2024/01/13 12:07:09;;;;;;;23.93;12.33;;;4.30;99.90;;;;;;5053546;28;20215;-71
2024/01/13 12:09:37;;;;;;;20.33;11.67;;;4.00;99.90;;;;;;5032895;28;20169;-71
2024/01/13 12:12:05;;;;;;;23.73;11.27;;;4.30;99.90;;;;;;5053384;28;20257;-70
2024/01/13 12:14:33;;;;;;;24.83;13.43;;;4.30;99.90;;;;;;5053379;28;20180;-71
2024/01/13 12:17:03;;;;;;;22.47;12.97;;;4.40;99.90;;;;;;5053294;28;20180;-70
2024/01/13 12:19:36;;;;;;;22.80;12.57;;;4.40;99.90;;;;;;5043958;28;20258;-71
2024/01/13 12:22:06;;;;;;;24.57;12.37;;;4.30;99.90;;;;;;5053329;28;20165;-70
2024/01/13 12:24:33;;;;;;;25.33;12.50;;;4.60;99.90;;;;;;5053209;28;20174;-71
2024/01/13 12:26:59;;;;;;;21.87;11.67;;;4.50;99.90;;;;;;5053148;28;20197;-71
2024/01/13 12:29:29;;;;;;;24.77;12.57;;;4.50;99.90;;;;;;5053177;28;20180;-71
2024/01/13 12:31:59;;;;;;;20.90;12.13;;;4.50;99.90;;;;;;5053138;28;20629;-71
2024/01/13 12:34:26;;;;;;;27.17;15.40;;;4.60;99.90;;;;;;5052818;28;20205;-71